vrijdag 6 december 2019 | Home | Bestenlijsten | Bestenlijsten NL | Calculators | Nieuws | Records | Uitslagen | Videos | Wedstrijden | VZA Ranglijsten | Weer |
 
Recent nieuws meer nieuws
27-11: Concurrentie bij het hardlopen
14-11: JARO crossen 2011 – 2021
31-10: De handrem
09-10: Tim Pleijte beste in Zeeuws onderonsje in 17e Kustmarathon
07-10: Zeeuws veldloopseizoen van start op Stelleplas
03-10: Hardlopen als een dressuurpaard
Wedstrijdagenda meer wedstrijden
za 07-12: Aflossingsmarathon Terneuzen
za 07-12: 27e Inkelcross Kruiningen
za 14-12: Steense Rattenloop Sint Jansteen
zo 15-12: 14e Spark marathon Spijkenisse
za 21-12: 20e Aagtekerke Run
za 21-12: 2e IGA Natuurloop Axel
do 26-12: 18e Kerstloop Dishoek
za 28-12: Eindejaarscross Axel
di 31-12: 39e Sylvestercross Soest
di 31-12: Tankloop Westkapelle
di 31-12: 2e Natuurloop Nieuwvliet
za 04-01: Jeff Thuy Memorial Heikant
za 04-01: 59e Wallenloop Goes
zo 05-01: Scheidsrechtersloop Vlissingen
Recente uitslagen meer uitslagen
zo 01-12: Jules Unlimitedloop Breskens
za 30-11: Grand Slam Vlissingen
za 30-11: Scheldesportloop Terneuzen (105)
zo 24-11: 20e Zakloop Nisse (527)
za 23-11: 34e Elderschanscross Aardenburg (107)
za 16-11: 19e Hobbeldebobbelloop Zoutelande (345)
za 16-11: Juul Van De Walleloop Nieuw-Namen (95)
zo 10-11: Natuurloop Cadzand-Bad (73)
za 09-11: 52e Mosselloop Westenschouwen (324)
za 09-11: Jeff Thuy Memorial Heikant (105)
za 02-11: 34e Moerschanscross Hulst (109)
za 02-11: Appelloop Axel (94)
za 26-10: 8e Stelleplascross Heinkenszand (76)
za 26-10: Piet Spruit Memorial Loop Sluiskil (78)
 
Zoek tenminste met 3 tekens van wedstrijd, datum, plaats of atleet

Natuurloop

Axel, zaterdag 22 december 2018 - Organisatie: Road Running Axel
14.21 km
PltsNaam
Tijdkm/umin/kmm/secgap
1  Sander PostTerneuzen52.15minM35   16.318  3:414.53-
2  Edwin de JaegerZuiddorpe56.37minM45   15.059  3:594.18+4:22
3  Stefan van den BroekeAxel58.10minMse   14.658  4:064.07+5:55
4  Martijn KoxWestdorpe58.19minM40   14.620  4:064.06+6:04
5  Marnix van den BrandeTerneuzen58.40minMse   14.533  4:084.04+6:25
6  Jeroen van den BroekeTerneuzen58.45minMse   14.512  4:084.03+6:30
7  Ben van VlietTerneuzen59.16minMse   14.386  4:104.00+7:01
8  Menno den DekkerTerneuzen1.01.17minMse   13.912  4:193.86+9:02
9  Erik BollemanAxel1.01.49minM50   13.792  4:213.83+9:34
10  Robert LafertinTerneuzen1.01.58minMse   13.759  4:223.82+9:43
11  Ard Jan DeurwaarderAxel1.03.08minMse   13.505  4:273.75+10:53
12  Jelle YpmaAxel1.04.12minMse   13.280  4:313.69+11:57
13  Erwin van BeljouwKloosterzande1.04.42minMse   13.178  4:333.66+12:27
14  Walter MurreZaamslag1.05.50minMse   12.951  4:383.60+13:35
15  Twan TimmermansNummer Een1.05.53minMse   12.941  4:383.59+13:38
16  Hedwig van BeverenMoerbeke1.06.08minMse   12.892  4:393.58+13:53
17  Matti BuysseStekene1.06.09minMse   12.889  4:393.58+13:54
18  Jaap van der VeenTerneuzen1.06.16minM50   12.866  4:403.57+14:01
19  David MullaertBiervliet1.06.33minMse   12.811  4:413.56+14:18
20  Robby ReynebeauZelzate1.06.57minMse   12.735  4:433.54+14:42
21  Jan SlockBoekhoute1.07.59minMse   12.541  4:473.48+15:44
22  Gerben SoethaertTerneuzen1.08.19minM40   12.480  4:483.47+16:04
23  Luc CarnoyWachtebeke1.08.22minMse   12.471  4:493.46+16:07
24  Michiel YsebaertSint Jansteen1.08.37minMse   12.426  4:503.45+16:22
25  Karel KokDriebergen1.08.43minMse   12.407  4:503.45+16:28
26  Jan BoonmanAxel1.13.08minMse   11.658  5:093.24+20:53
27  Arnold RypensReet1.14.00minMse   11.522  5:123.20+21:45
28  Karin CasparyBiervliet1.14.07minVse   11.503  5:133.20+21:52
29  Frans VerwilligenHulst1.14.29minMse   11.447  5:143.18+22:14
30  Paul d´HaensHulst1.15.54minMse   11.233  5:203.12+23:39
31  Johnny DoomsTerneuzen1.16.24minM65   11.160  5:233.10+24:09
32  Jack FolkersmaTerneuzen1.17.16minMse   11.035  5:263.07+25:01
33  Paul BosmanKoewacht1.18.19minMse   10.887  5:313.02+26:04
34  Paul HaertjensBoekhoute1.18.20minMse   10.884  5:313.02+26:05
35  Marian van DammeMeerdonk1.18.59minVse   10.795  5:333.00+26:44
36  Margo HermansOssenisse1.21.49minVse   10.421  5:452.89+29:34
37  Jeffrey van KempenOost-Souburg1.21.51minMse   10.417  5:462.89+29:36
38  Linda van GoolSint-Kruis-Winkel1.24.40minVse   10.070  5:572.80+32:25
39  Carla ZegersKoewacht1.25.54minV50   9.925  6:032.76+33:39
40  Rudy vande VeldeWachtebeke1.26.47minMse   9.824  6:062.73+34:32
41  Jacqueline van de VoordeHulst1.27.16minVse   9.770  6:082.71+35:01
42  Ellen BroekaartHulst1.27.17minVse   9.768  6:092.71+35:02
43  Joke RijkHulst1.27.19minVse   9.764  6:092.71+35:04
44  Eddy van BovenSchoonaarde1.30.47minMse   9.392  6:232.61+38:32
Mannen: 36 (81.82%) => M35=1 - M40=2 - M45=1 - M50=2 - M65=1 - Mse=29
Vrouwen: 8 (18.18%) => V50=1 - Vse=7
7.94 km
PltsNaam
Tijdkm/umin/kmm/secgap
1  Jan-Niek BoeijeTerneuzen33.53minMse   14.060  4:163.91-
2  Benjamin GerritsAxel34.07minMse   13.964  4:183.88+0:14
3  Albert PlatteeuwTerneuzen34.56minM50   13.637  4:243.79+1:03
4  Thijsvande GeldSluiskil35.35minMse   13.388  4:293.72+1:42
5  Jos van GrembergheKoewacht35.45minMse   13.326  4:303.70+1:52
6  Peter DelenWielsbeke36.59minMse   12.881  4:393.58+3:06
7  Alwin BollemanTerneuzen37.32minMse   12.693  4:443.53+3:39
8  Guus van BeljouwKloosterzande38.38minMse   12.331  4:523.43+4:45
9  Alex EversdijkTerneuzen38.51minMse   12.263  4:543.41+4:58
10  Freer van RoeyenAxel38.52minMse   12.257  4:543.40+4:59
11  Marc van PasselVogelwaarde39.31minMse   12.056  4:593.35+5:38
12  Richard WullemsAxel39.33minMse   12.046  4:593.35+5:40
13  Leo KayserTerneuzen39.35minMse   12.035  4:593.34+5:42
14  Bennie BouterseTerneuzen39.38minMse   12.020  4:593.34+5:45
15  Petra de KnechtTerneuzen40.11minV50   11.856  5:043.29+6:18
16  Robert MathijsTerneuzen40.13minMse   11.846  5:043.29+6:20
17  jan Willem VewrloigneMaldegem40.28minMse   11.773  5:063.27+6:35
18  Pascal de GraeveWestdorpe41.05minM45   11.596  5:103.22+7:12
19  Pim VinkeAxel43.34minMse   10.935  5:293.04+9:41
20  Didier van NieuwenhuijzeAssenede44.11minMse   10.782  5:343.00+10:18
21  Rene JanseAxel44.30minMse   10.706  5:362.97+10:37
22  Daan DielemanZaamslag45.48minMse   10.402  5:462.89+11:55
23  Alexandra PijnenTerneuzen46.19minVse   10.286  5:502.86+12:26
24  Patrick DobbelaarZaamslag46.21minMse   10.278  5:502.86+12:28
25  Leo HoeksmaKoewacht47.03minMse   10.125  5:562.81+13:10
26  Karin de DekkerTerneuzen47.06minV45   10.115  5:562.81+13:13
27  Ernst WillemkensTerneuzen47.48minMse   9.967  6:012.77+13:55
28  Sheila BaarsAxel48.28minVse   9.829  6:062.73+14:35
29  Chantal SchilperoortTerneuzen49.29minVse   9.627  6:142.67+15:36
30  Ynske TaelmanKloosterzande49.33minVse   9.615  6:142.67+15:40
31  Jacky DoomsSluiskil49.37minMse   9.602  6:152.67+15:44
32  Katy van de SompelAxel51.23minVse   9.271  6:282.58+17:30
33  Geert WaelputAxel51.25minM45   9.265  6:292.57+17:32
34  Petra van BeljouwKloosterzande52.39minVse   9.048  6:382.51+18:46
35  Linda VinkAxel53.37minVse   8.885  6:452.47+19:44
Mannen: 26 (74.29%) => M45=2 - M50=1 - Mse=23
Vrouwen: 9 (25.71%) => V45=1 - V50=1 - Vse=7

Snelheid en tempo zijn berekend op de vermelde afstand. Bij een onjuiste afstand wijken deze uiteraard af!

Fouten melden via info@atletiekzeeland.nl Categorie fout? Mail dan geboortedatum. (geldt alleen voor Zeeuwen)

De server had 0.089 seconden nodig om deze lijst met 79 prestaties samen te stellen.

Terug naar boven


 
Recente Zeeuwse prestaties meer prestaties
01-12: Surpriseloop Halsteren (4)
10 km Ronald Geertse (PR 39.02)40.25  Mse
10 km Colin Harmsen Van Der Vliet (PR 40.41)43.47  M35
10 km Sjef Goris (PR 40.53)43.59  M55
5 km Jaco Rip (PR 19.32)19.42  M40
01-12: Montferland Run s-Heerenberg (1)
15 km Wouter Jansen (PR 46.47)48.30  Mse
24-11: Marathon San Sebastian (9)
marath Arthur van Aartsen (PR 3.18.18)3.32.20  M45
marath Maurice Steketee (PR 3.51.31)3.53.03  M35
marath Hans Minnaard (PR 3.12.22)4.07.25  M55
halve Loura Kleinepier (debuut)1.33.55  Vse
halve Marije Besuijen (PR 1.45.31)1.49.05  V40
halve John Guequierre (PR 1.17.01)1.51.17  M65
halve Sebastian Nijssen (PR 2.06.22)2.06.27  M45
10 km Jos Janse (PR 40.27)49.41  M45
10 km Wim Jobse (PR 55.29)58.36  Mse
17-11: Kievitloop Bergen op Zoom (7)
17-11: Marathon Kasterlee  (3)
17-11: 36e Zevenheuvelenloop Nijmegen (109)
17-11: Marathon Palermo (3)
11-11: Halve Marathon Deinze-Aalter  (5)
03-11: 14e Drechtstadloop Dordrecht (11)
03-11: New York City Marathon  (7)
03-11: Marathon Nice (1)
03-11: Marathon Porto (1)
27-10: 37e Marathon Brabant Etten-Leur (83)
27-10: Frankfurt Marathon  (1)
20-10: 44e Amsterdam Marathon  (24)
14-10: Kermisloop Putte (4)
13-10: Rondje Seppe Bosschenhoofd (5)
13-10: Marathon Chicago (1)
13-10: 36e Marathon Eindhoven  (14)
13-10: 4 Mijl van Groningen  (2)
13-10: Marathon Köln  (2)
Atletiek Zeeland © 2019